Hlavní strana
METAR-TAF:

METAR-TAF

Letiště :

Letiště Vitebsk

Vitebsk, Bělorusko

zeměpisná šířka: 55-10N, zeměpisná délka: 030-13E, výška: 176 m

Aktuální stav počasí

Zpráva byla vytvořena před 12 hodinami a 40 minutami, v 16:04 UTC
Jižní vítr 8 kt
Teplota 7°C
Vlhkost vzduchu 100%
Tlak 1026 hPa
Viditelnost: 2200 m
Zataženo ve výšce 400 ft
kouřmo

METAR: UMII 171604Z 17004MPS 2200 BR OVC004 07/07 Q1026 TEMPO 1600 BKN003 RMK QBB130

Čas: 07:44 (04:44 UTC)

Předpověď počasí

Zpráva byla vytvořena před 14 hodinami a 38 minutami, v 14:06 UTC
Předpověď platná od 17 v 15 UTC do 17 v 24 UTC
Jižní vítr 10 kt
Viditelnost: 2000 m
Zataženo ve výšce 500 ft
kouřmo
Dočasný
od 17 v 15 UTC do 17 v 21 UTC
Jižní vítr 8 kt s nárazy do 17 kt
Viditelnost: 0900 m
ve výšce 200 ft
mrholení, mlha

TAF: UMII 171406Z 1715/1724 17005MPS 2000 BR OVC005 TEMPO 1715/1721 18004G09MPS 0900 DZ FG VV002

Stav a předpovědi počasí z více než 4 000 letišť (zprávy METAR a TAF).

Červené a žluté tečky na mapě představují dostupné meteorologické stanice.

Když kurzor umístíte na tečku, zobrazí se název stanice.

Pak kliknutím zobrazíte stav a předpověď počasí.

Chcete-li změnit mapu, kliknutím na zelené tlačítko se znaménkem +mapu přiblížíte, kliknutím na zelené tlačítko se znaménkem – mapu oddálíte a kliknutím na zelené šipky přejdete na sousední mapy.


METAR-TAF: